Dry Prong, Louisiana
Current Conditions -  °F | °C
As of 4:53 PM on Saturday 25 Oct 2014 (Local Time) from KAEX Reporting Station
Clear Clear  
Wind Chill: 82°   Ceiling: Unl
Heat Index: 82°   Visibility: 10mi
Dew Point: 52°   Wind: 3mph
Humidity: 35%   Direction: 280°W
Pressure: 30.07"   Gusts: NA
Location:  31.58°N, 92.53°W
Report Text: KAEX 252153Z AUTO 28003KT 10SM CLR 28/11 A3007 RMK AO2 SLP186 T02780111 $
Loading
Personal Weather Stations






























Interactive Weather Map
Tropical Storm Tracking
New forecast layout! Learn more

10-Day Weather Forecast

Advertisements
Track Severe Weather on mobile